Time;durP1;ratioP1;P1;durP2;ratioP2;P2;SDS_P1;SDS_P2;PMS_P1;PMS_P2;Temp;Humidity;BMP_temperature;BMP_pressure;BME280_temperature;BME280_humidity;BME280_pressure;Samples;Min_cycle;Max_cycle;Signal;HPM_P1;HPM_P2
2021/04/20 00:00:53;;;;;;;18.77;8.45;;;;;;;10.62;100.00;100516.81;1655273;86;20993;-85
2021/04/20 00:03:19;;;;;;;23.07;8.20;;;;;;;10.62;100.00;100516.81;1636259;86;21029;-86
2021/04/20 00:05:45;;;;;;;17.32;7.78;;;;;;;10.64;100.00;100515.99;1655115;86;21043;-85
2021/04/20 00:08:11;;;;;;;16.30;7.30;;;;;;;10.57;100.00;100509.50;1655332;86;21181;-86
2021/04/20 00:10:37;;;;;;;23.87;9.83;;;;;;;10.50;100.00;100501.36;1655235;86;21152;-85
2021/04/20 00:13:04;;;;;;;20.48;8.75;;;;;;;10.40;100.00;100491.35;1667812;85;21109;-86
2021/04/20 00:15:33;;;;;;;25.02;9.75;;;;;;;10.24;100.00;100475.62;1676826;84;21455;-86
2021/04/20 00:18:06;;;;;;;32.93;12.98;;;;;;;10.11;100.00;100474.17;1676808;84;21637;-85
2021/04/20 00:20:34;;;;;;;34.58;12.85;;;;;;;10.00;100.00;100480.58;1677006;85;21449;-86
2021/04/20 00:23:01;;;;;;;35.05;12.28;;;;;;;10.04;100.00;100482.22;1676810;85;21185;-86
2021/04/20 00:25:26;;;;;;;29.30;11.20;;;;;;;10.03;100.00;100495.38;1676860;85;21137;-85
2021/04/20 00:27:52;;;;;;;27.80;11.10;;;;;;;10.06;100.00;100495.70;1676946;85;20979;-86
2021/04/20 00:30:19;;;;;;;31.30;11.57;;;;;;;10.16;100.00;100504.38;1676799;85;21050;-86
2021/04/20 00:32:45;;;;;;;28.77;10.58;;;;;;;10.19;100.00;100501.97;1676793;84;22156;-86
2021/04/20 00:35:12;;;;;;;27.37;11.43;;;;;;;10.10;100.00;100495.45;1676777;84;20908;-86
2021/04/20 00:37:39;;;;;;;30.10;11.80;;;;;;;10.06;100.00;100484.93;1676824;85;21106;-86
2021/04/20 00:40:08;;;;;;;28.20;10.80;;;;;;;9.90;100.00;100463.80;1676722;85;21126;-86
2021/04/20 00:42:55;;;;;;;26.93;10.00;;;;;;;9.82;100.00;100451.36;1676723;85;21133;-85
2021/04/20 00:45:25;;;;;;;21.60;9.28;;;;;;;9.86;100.00;100454.64;1676783;84;21937;-86
2021/04/20 00:47:52;;;;;;;20.55;8.88;;;;;;;9.86;100.00;100450.59;1597534;89;21154;-85
2021/04/20 00:50:32;;;;;;;22.90;9.15;;;;;;;9.85;100.00;100448.95;1597684;89;21229;-85
2021/04/20 00:52:59;;;;;;;19.52;8.90;;;;;;;9.80;100.00;100442.75;1580284;90;21180;-86
2021/04/20 00:55:25;;;;;;;22.27;9.75;;;;;;;9.67;100.00;100436.72;1580173;90;21185;-86
2021/04/20 00:57:51;;;;;;;22.15;8.78;;;;;;;9.64;100.00;100431.85;1580249;90;21756;-86
2021/04/20 01:00:22;;;;;;;18.15;8.55;;;;;;;9.68;100.00;100433.52;1580183;90;21201;-86
2021/04/20 01:02:48;;;;;;;20.55;9.38;;;;;;;9.66;100.00;100431.61;1580318;90;21272;-86
2021/04/20 01:05:19;;;;;;;23.00;8.68;;;;;;;9.64;100.00;100424.32;1580196;90;21181;-85
2021/04/20 01:07:46;;;;;;;20.97;9.08;;;;;;;9.55;100.00;100415.38;1580220;90;21287;-86
2021/04/20 01:10:13;;;;;;;20.50;8.93;;;;;;;9.48;100.00;100400.54;1580165;90;21239;-86
2021/04/20 01:12:41;;;;;;;19.82;9.03;;;;;;;9.47;100.00;100396.20;1578826;89;21284;-86
2021/04/20 01:15:11;;;;;;;18.80;7.87;;;;;;;9.44;100.00;100397.56;1574359;91;21318;-85
2021/04/20 01:17:37;;;;;;;19.92;8.98;;;;;;;9.39;100.00;100385.95;1575490;91;21211;-86
2021/04/20 01:20:10;;;;;;;20.02;8.68;;;;;;;9.35;100.00;100389.66;1575538;90;21121;-86
2021/04/20 01:22:41;;;;;;;21.68;9.28;;;;;;;9.38;100.00;100401.25;1575244;91;21945;-85
2021/04/20 01:25:10;;;;;;;25.15;9.55;;;;;;;9.41;100.00;100407.48;1575282;91;21248;-85
2021/04/20 01:27:37;;;;;;;20.70;8.78;;;;;;;9.44;100.00;100399.41;1575355;91;21193;-86
2021/04/20 01:30:07;;;;;;;20.40;9.10;;;;;;;9.35;100.00;100400.41;1575506;91;21145;-85
2021/04/20 01:32:39;;;;;;;24.25;9.03;;;;;;;9.27;100.00;100399.56;1552145;91;21249;-85
2021/04/20 01:35:09;;;;;;;20.60;9.00;;;;;;;9.31;100.00;100395.28;1552094;91;21715;-85
2021/04/20 01:37:36;;;;;;;21.40;9.28;;;;;;;9.31;100.00;100387.22;1552098;91;21190;-85
2021/04/20 01:40:05;;;;;;;22.15;9.50;;;;;;;9.29;100.00;100392.03;1552055;91;21218;-85
2021/04/20 01:42:33;;;;;;;21.95;8.73;;;;;;;9.28;100.00;100391.77;1552153;91;21241;-86
2021/04/20 01:44:58;;;;;;;19.65;8.25;;;;;;;9.24;100.00;100389.32;1568176;89;21200;-85
2021/04/20 01:47:24;;;;;;;19.73;8.50;;;;;;;9.21;100.00;100387.14;1580850;90;21662;-85
2021/04/20 01:49:51;;;;;;;22.10;9.58;;;;;;;9.13;100.00;100381.69;1595850;89;21651;-86
2021/04/20 01:52:17;;;;;;;25.35;9.43;;;;;;;9.08;100.00;100380.29;1607920;89;21254;-85
2021/04/20 01:54:43;;;;;;;23.27;9.23;;;;;;;9.08;100.00;100383.78;1608173;89;21000;-85
2021/04/20 01:57:11;;;;;;;27.80;9.43;;;;;;;9.07;100.00;100369.27;1608200;89;21635;-85
2021/04/20 01:59:37;;;;;;;19.92;8.43;;;;;;;8.98;100.00;100364.89;1608242;89;21298;-86
2021/04/20 02:02:03;;;;;;;17.32;8.40;;;;;;;8.91;100.00;100364.80;1607921;89;21251;-86
2021/04/20 02:04:30;;;;;;;19.00;8.15;;;;;;;8.88;100.00;100356.72;1608078;89;21596;-85
2021/04/20 02:06:56;;;;;;;22.00;9.35;;;;;;;8.89;100.00;100350.83;1608187;89;21179;-86
2021/04/20 02:09:22;;;;;;;20.75;9.18;;;;;;;8.81;100.00;100345.37;1608170;89;21178;-86
2021/04/20 02:11:48;;;;;;;23.30;10.50;;;;;;;8.78;100.00;100341.31;1608196;89;21175;-85
2021/04/20 02:14:14;;;;;;;26.45;10.75;;;;;;;8.77;100.00;100338.36;1630360;87;21175;-86
2021/04/20 02:16:41;;;;;;;29.07;11.48;;;;;;;8.78;100.00;100337.28;1634083;87;21493;-85
2021/04/20 02:19:12;;;;;;;26.00;11.18;;;;;;;8.79;100.00;100336.75;1634324;87;21783;-86
2021/04/20 02:21:39;;;;;;;25.40;10.28;;;;;;;8.78;100.00;100349.91;1634299;87;21603;-86
2021/04/20 02:24:09;;;;;;;27.17;10.08;;;;;;;8.79;100.00;100344.27;1634138;87;21417;-86
2021/04/20 02:26:39;;;;;;;24.15;10.10;;;;;;;8.80;100.00;100343.23;1634178;87;21209;-86
2021/04/20 02:29:08;;;;;;;25.62;11.05;;;;;;;8.84;100.00;100330.09;1634085;87;21171;-86
2021/04/20 02:31:39;;;;;;;33.50;11.65;;;;;;;8.82;100.00;100317.42;1634187;87;21223;-86
2021/04/20 02:34:08;;;;;;;50.40;19.20;;;;;;;8.79;100.00;100314.72;1634269;87;21217;-86
2021/04/20 02:36:45;;;;;;;48.23;17.02;;;;;;;8.68;100.00;100305.47;1671579;85;21584;-85
2021/04/20 02:39:13;;;;;;;47.38;18.27;;;;;;;8.68;100.00;100294.73;1681607;85;21203;-86
2021/04/20 02:41:40;;;;;;;48.65;18.20;;;;;;;8.61;100.00;100285.00;1681591;85;21601;-86
2021/04/20 02:44:09;;;;;;;46.98;17.05;;;;;;;8.59;100.00;100285.81;1681614;85;21449;-85
2021/04/20 02:46:38;;;;;;;46.40;15.75;;;;;;;8.63;100.00;100280.73;1681665;84;21164;-85
2021/04/20 02:49:04;;;;;;;40.85;15.85;;;;;;;8.60;100.00;100274.53;1681738;84;21785;-85
2021/04/20 02:51:33;;;;;;;46.53;17.62;;;;;;;8.59;100.00;100279.09;1681552;84;21657;-85
2021/04/20 02:53:59;;;;;;;46.33;16.40;;;;;;;8.65;100.00;100286.67;1681553;85;21139;-85
2021/04/20 02:56:26;;;;;;;38.63;14.78;;;;;;;8.71;100.00;100288.88;1681573;84;21608;-85
2021/04/20 02:58:53;;;;;;;34.25;13.72;;;;;;;8.69;100.00;100288.31;1681711;85;21462;-86
2021/04/20 03:01:29;;;;;;;36.45;13.68;;;;;;;8.75;100.00;100296.16;1681520;84;21553;-85
2021/04/20 03:03:56;;;;;;;32.75;13.38;;;;;;;8.78;100.00;100292.15;1681568;85;21140;-85
2021/04/20 03:06:22;;;;;;;34.60;12.75;;;;;;;8.80;100.00;100287.34;1681571;85;21128;-85
2021/04/20 03:08:50;;;;;;;32.08;12.23;;;;;;;8.81;100.00;100290.30;1681630;84;21641;-86
2021/04/20 03:11:23;;;;;;;25.82;11.75;;;;;;;8.85;100.00;100290.88;1681696;85;21209;-86
2021/04/20 03:13:50;;;;;;;28.55;11.57;;;;;;;8.91;100.00;100301.12;1610151;88;21910;-85
2021/04/20 03:16:17;;;;;;;28.77;11.95;;;;;;;9.00;100.00;100304.98;1617786;88;21175;-85
2021/04/20 03:18:47;;;;;;;30.10;10.48;;;;;;;9.08;100.00;100303.14;1614316;88;21627;-85
2021/04/20 03:21:16;;;;;;;30.90;13.13;;;;;;;9.00;100.00;100290.20;1614787;88;21056;-85
2021/04/20 03:23:44;;;;;;;28.62;11.88;;;;;;;8.97;100.00;100278.63;1617966;88;21119;-85
2021/04/20 03:26:28;;;;;;;30.32;12.68;;;;;;;8.97;100.00;100282.66;1565992;91;21283;-85
2021/04/20 03:28:56;;;;;;;;;;;;;;;9.01;100.00;100279.72;1496267;96;21248;-85
2021/04/20 03:31:22;;;;;;;25.37;10.72;;;;;;;8.94;100.00;100271.08;1472972;96;20568;-85
2021/04/20 03:34:02;;;;;;;24.70;11.22;;;;;;;9.01;100.00;100268.16;1472885;96;21197;-86
2021/04/20 03:36:33;;;;;;;28.40;11.80;;;;;;;9.00;100.00;100256.60;1473149;96;21185;-86
2021/04/20 03:39:22;;;;;;;24.57;10.88;;;;;;;8.98;100.00;100262.76;1426431;100;21254;-85
2021/04/20 03:42:02;;;;;;;24.27;11.30;;;;;;;9.03;100.00;100266.84;1426424;100;21222;-85
2021/04/20 03:44:32;;;;;;;25.35;11.22;;;;;;;9.06;100.00;100268.20;1426620;100;21668;-85
2021/04/20 03:47:03;;;;;;;26.60;11.63;;;;;;;9.13;100.00;100272.81;1412396;101;21313;-85
2021/04/20 03:49:36;;;;;;;27.22;12.07;;;;;;;9.16;100.00;100271.49;1412666;101;21782;-85
2021/04/20 03:52:07;;;;;;;26.80;11.93;;;;;;;9.23;100.00;100273.41;1421775;99;21995;-85
2021/04/20 03:54:35;;;;;;;33.00;13.05;;;;;;;9.18;100.00;100272.05;1420829;100;21289;-85
2021/04/20 03:57:02;;;;;;;32.28;13.88;;;;;;;9.22;100.00;100265.88;1423436;100;21233;-85
2021/04/20 03:59:30;;;;;;;31.80;13.62;;;;;;;9.18;100.00;100255.92;1420549;99;21281;-85
2021/04/20 04:01:59;;;;;;;32.75;14.98;;;;;;;9.15;100.00;100258.59;1423485;100;21161;-85
2021/04/20 04:04:29;;;;;;;33.13;14.18;;;;;;;9.18;100.00;100253.23;1423393;100;21260;-85
2021/04/20 04:06:55;;;;;;;32.65;14.30;;;;;;;9.22;100.00;100247.60;1458162;97;21726;-85
2021/04/20 04:09:21;;;;;;;38.20;15.40;;;;;;;9.19;100.00;100240.86;1467068;97;21271;-85
2021/04/20 04:11:58;;;;;;;29.70;12.73;;;;;;;9.25;100.00;100237.67;1467161;97;22552;-85
2021/04/20 04:14:28;;;;;;;30.92;13.78;;;;;;;9.31;100.00;100240.66;1469753;96;21234;-85
2021/04/20 04:16:59;;;;;;;34.08;14.68;;;;;;;9.34;100.00;100232.08;1471083;97;21435;-85
2021/04/20 04:19:32;;;;;;;33.78;14.45;;;;;;;9.38;100.00;100230.48;1470782;96;21228;-85
2021/04/20 04:22:09;;;;;;;36.42;14.68;;;;;;;9.44;100.00;100231.31;1472864;94;26697;-85
2021/04/20 04:24:55;;;;;;;32.65;14.07;;;;;;;9.48;100.00;100222.48;1494097;95;22397;-85
2021/04/20 04:27:26;;;;;;;30.95;14.93;;;;;;;9.58;100.00;100224.94;1495919;95;21684;-85
2021/04/20 04:29:55;;;;;;;32.78;15.00;;;;;;;9.59;100.00;100214.44;1498154;95;21422;-85
2021/04/20 04:32:24;;;;;;;37.65;16.45;;;;;;;9.60;100.00;100208.81;1500827;94;21265;-85
2021/04/20 04:34:50;;;;;;;38.23;17.07;;;;;;;9.61;100.00;100208.27;1505271;90;21212;-85
2021/04/20 04:37:17;;;;;;;40.43;17.95;;;;;;;9.69;100.00;100205.08;1589620;90;21134;-85
2021/04/20 04:39:44;;;;;;;50.38;20.50;;;;;;;9.71;100.00;100197.56;1589528;90;21234;-85
2021/04/20 04:42:11;;;;;;;39.40;18.70;;;;;;;9.72;100.00;100197.83;1589655;90;21258;-85
2021/04/20 04:44:38;;;;;;;43.13;17.75;;;;;;;9.75;100.00;100194.61;1645349;86;21568;-85
2021/04/20 04:47:09;;;;;;;43.33;16.05;;;;;;;9.86;100.00;100184.15;1656708;86;21766;-85
2021/04/20 04:49:36;;;;;;;35.43;15.25;;;;;;;9.78;100.00;100181.97;1634422;86;21139;-85
2021/04/20 04:52:05;;;;;;;35.73;15.18;;;;;;;9.80;100.00;100185.21;1656761;86;21198;-85
2021/04/20 04:54:32;;;;;;;34.43;15.40;;;;;;;9.78;100.00;100183.31;1656803;86;21206;-85
2021/04/20 04:57:00;;;;;;;37.53;15.80;;;;;;;9.72;100.00;100183.83;1656749;86;21178;-85
2021/04/20 04:59:27;;;;;;;34.83;16.10;;;;;;;9.76;100.00;100181.41;1656797;86;21250;-85
2021/04/20 05:01:55;;;;;;;36.60;15.93;;;;;;;9.78;100.00;100186.00;1656175;86;21256;-85
2021/04/20 05:04:25;;;;;;;31.62;15.08;;;;;;;9.83;100.00;100186.56;1656496;86;21148;-85
2021/04/20 05:06:52;;;;;;;37.70;16.05;;;;;;;9.90;100.00;100190.61;1656688;86;21223;-85
2021/04/20 05:09:21;;;;;;;33.15;15.18;;;;;;;9.90;100.00;100185.23;1656514;86;21218;-85
2021/04/20 05:11:49;;;;;;;34.43;15.72;;;;;;;9.95;100.00;100182.55;1634429;86;21262;-85
2021/04/20 05:14:20;;;;;;;35.05;15.10;;;;;;;9.99;100.00;100178.25;1654544;85;22495;-85
2021/04/20 05:16:52;;;;;;;34.78;15.50;;;;;;;10.15;100.00;100182.34;1652498;86;21145;-85
2021/04/20 05:19:31;;;;;;;59.80;19.80;;;;;;;10.16;100.00;100175.33;1591630;89;22951;-85
2021/04/20 05:21:58;;;;;;;36.50;16.67;;;;;;;10.26;100.00;100170.48;1588635;88;21228;-85
2021/04/20 05:24:25;;;;;;;48.23;17.55;;;;;;;10.24;100.00;100161.88;1586757;89;21247;-85
2021/04/20 05:26:51;;;;;;;40.52;17.62;;;;;;;10.31;100.00;100163.79;1586502;89;21192;-85
2021/04/20 05:29:18;;;;;;;36.98;16.57;;;;;;;10.23;100.00;100166.46;1586561;90;21606;-85
2021/04/20 05:31:44;;;;;;;41.53;17.73;;;;;;;10.30;100.00;100164.88;1586629;89;21770;-85
2021/04/20 05:34:11;;;;;;;44.88;18.48;;;;;;;10.41;100.00;100171.05;1586668;89;21256;-85
2021/04/20 05:36:38;;;;;;;46.58;19.50;;;;;;;10.39;100.00;100164.61;1586455;89;21240;-85
2021/04/20 05:39:08;;;;;;;38.58;16.77;;;;;;;10.43;100.00;100168.36;1586697;89;21257;-85
2021/04/20 05:41:36;;;;;;;35.48;16.07;;;;;;;10.43;100.00;100163.52;1536690;92;21200;-84
2021/04/20 05:44:06;;;;;;;36.25;16.37;;;;;;;10.40;100.00;100168.91;1536890;92;21202;-85
2021/04/20 05:46:39;;;;;;;42.00;17.25;;;;;;;10.35;100.00;100174.31;1536878;92;22513;-84
2021/04/20 05:49:06;;;;;;;33.58;15.83;;;;;;;10.23;100.00;100173.20;1536778;92;21267;-85
2021/04/20 05:51:32;;;;;;;31.23;14.70;;;;;;;10.37;100.00;100184.26;1536879;92;21241;-84
2021/04/20 05:53:58;;;;;;;40.80;16.65;;;;;;;10.24;100.00;100182.08;1536996;92;21236;-85
2021/04/20 05:56:25;;;;;;;44.23;18.45;;;;;;;10.15;100.00;100182.34;1536852;92;21921;-85
2021/04/20 05:58:55;;;;;;;58.80;23.32;;;;;;;10.22;100.00;100186.91;1536932;93;21561;-84
2021/04/20 06:01:25;;;;;;;49.50;23.40;;;;;;;10.25;100.00;100186.37;1490128;96;21267;-85
2021/04/20 06:03:52;;;;;;;43.68;19.60;;;;;;;10.34;100.00;100186.69;1478937;96;21334;-85
2021/04/20 06:06:22;;;;;;;37.95;16.07;;;;;;;10.27;100.00;100186.16;1479141;97;21216;-85
2021/04/20 06:08:52;;;;;;;37.35;16.37;;;;;;;10.21;100.00;100185.30;1479231;97;21258;-84
2021/04/20 06:11:20;;;;;;;38.30;16.85;;;;;;;10.37;100.00;100185.61;1479139;96;21212;-84
2021/04/20 06:13:47;;;;;;;37.33;16.95;;;;;;;10.45;100.00;100185.08;1481727;95;21267;-84
2021/04/20 06:16:14;;;;;;;40.20;17.77;;;;;;;10.44;100.00;100183.98;1490254;96;21255;-84
2021/04/20 06:18:41;;;;;;;41.15;18.05;;;;;;;10.43;100.00;100185.87;1489797;96;21204;-84
2021/04/20 06:21:09;;;;;;;39.98;17.02;;;;;;;10.55;100.00;100185.61;1489802;96;21264;-84
2021/04/20 06:23:37;;;;;;;40.03;18.62;;;;;;;10.67;100.00;100180.75;1489798;96;21258;-85
2021/04/20 06:26:06;;;;;;;54.63;19.45;;;;;;;10.85;100.00;100184.80;1489755;96;21218;-85
2021/04/20 06:28:33;;;;;;;40.70;18.52;;;;;;;10.88;100.00;100178.88;1489764;95;21231;-85
2021/04/20 06:31:02;;;;;;;48.55;19.87;;;;;;;11.02;100.00;100178.29;1489754;96;21262;-84
2021/04/20 06:33:34;;;;;;;42.60;18.67;;;;;;;10.94;100.00;100177.49;1489831;96;21211;-85
2021/04/20 06:36:08;;;;;;;48.65;19.45;;;;;;;11.22;100.00;100178.79;1490001;96;21271;-85
2021/04/20 06:38:37;;;;;;;43.75;19.23;;;;;;;10.90;100.00;100174.53;1516751;93;21416;-85
2021/04/20 06:41:08;;;;;;;44.70;18.77;;;;;;;11.05;100.00;100175.85;1537631;93;21222;-85
2021/04/20 06:44:12;;;;;;;44.73;20.12;;;;;;;11.04;100.00;100180.98;1537724;93;21226;-86
2021/04/20 06:46:49;;;;;;;51.45;20.23;;;;;;;11.04;100.00;100176.14;1537730;93;21400;-86
2021/04/20 06:49:22;;;;;;;47.03;19.42;;;;;;;11.00;100.00;100177.23;1535202;93;21258;-85
2021/04/20 06:51:52;;;;;;;56.00;21.80;;;;;;;10.95;100.00;100171.04;1514281;94;21289;-84
2021/04/20 06:54:40;;;;;;;55.05;20.82;;;;;;;10.94;100.00;100178.30;1514577;94;21130;-84
2021/04/20 06:57:15;;;;;;;52.27;21.70;;;;;;;10.96;100.00;100172.09;1467882;96;21805;-84
2021/04/20 07:00:14;;;;;;;56.95;21.95;;;;;;;11.02;100.00;100174.25;1443742;98;21338;-84
2021/04/20 07:03:16;;;;;;;50.45;19.98;;;;;;;10.91;100.00;100172.09;1458031;98;21252;-85
2021/04/20 07:05:53;;;;;;;45.17;20.37;;;;;;;10.85;100.00;100175.88;1458662;97;21260;-84
2021/04/20 07:08:43;;;;;;;59.23;23.02;;;;;;;11.12;100.00;100168.84;1457447;98;21246;-85
2021/04/20 07:11:14;;;;;;;51.48;21.93;;;;;;;11.12;100.00;100165.60;1458550;98;21237;-84
2021/04/20 07:13:46;;;;;;;53.25;21.82;;;;;;;11.26;100.00;100169.05;1460995;95;21646;-85
2021/04/20 07:16:32;;;;;;;44.73;19.60;;;;;;;11.10;100.00;100171.00;1488983;94;21264;-84
2021/04/20 07:19:09;;;;;;;55.80;22.22;;;;;;;11.13;100.00;100165.86;1491334;94;21323;-84
2021/04/20 07:22:18;;;;;;;53.95;21.77;;;;;;;11.16;100.00;100170.45;1491517;96;21002;-84
2021/04/20 07:25:07;;;;;;;48.63;20.20;;;;;;;10.90;100.00;100162.41;1491426;96;21251;-85
2021/04/20 07:27:57;;;;;;;48.40;21.30;;;;;;;10.79;100.00;100163.50;1491310;94;22031;-84
2021/04/20 07:30:36;;;;;;;50.33;22.25;;;;;;;10.85;100.00;100144.38;1489360;94;21216;-84
2021/04/20 07:33:23;;;;;;;54.10;20.60;;;;;;;10.77;100.00;100144.92;1491407;95;21248;-84
2021/04/20 07:36:18;;;;;;;48.42;20.82;;;;;;;10.85;100.00;100135.45;1491254;94;21216;-85
2021/04/20 07:38:58;;;;;;;56.00;21.65;;;;;;;10.97;100.00;100132.46;1490181;94;21212;-84
2021/04/20 07:41:37;;;;;;;55.48;23.10;;;;;;;10.75;100.00;100131.44;1491336;95;21284;-84
2021/04/20 07:44:26;;;;;;;63.65;23.00;;;;;;;11.08;100.00;100131.36;1489898;95;21569;-85
2021/04/20 07:46:58;;;;;;;59.53;23.22;;;;;;;10.77;100.00;100127.95;1517147;92;22581;-86
2021/04/20 07:50:05;;;;;;;55.65;22.20;;;;;;;10.99;100.00;100123.56;1661227;85;21209;-87
2021/04/20 07:52:36;;;;;;;54.27;21.70;;;;;;;10.97;100.00;100119.81;1609249;87;21171;-87
2021/04/20 07:55:33;;;;;;;48.68;22.70;;;;;;;10.89;100.00;100114.98;1597976;88;21699;-87
2021/04/20 07:58:08;;;;;;;50.05;22.15;;;;;;;11.07;100.00;100109.53;1553488;91;21150;-88
2021/04/20 08:00:42;;;;;;;53.78;23.05;;;;;;;11.04;100.00;100110.08;1559326;90;21276;-88
2021/04/20 08:03:34;;;;;;;57.70;25.08;;;;;;;11.09;100.00;100098.73;1519147;93;21234;-89
2021/04/20 08:06:13;;;;;;;58.87;25.05;;;;;;;11.11;100.00;100100.59;1526210;92;21271;-89
2021/04/20 08:08:56;;;;;;;68.65;26.68;;;;;;;10.76;100.00;100103.40;1523405;92;21218;-90
2021/04/20 08:11:46;;;;;;;58.23;25.15;;;;;;;10.58;100.00;100086.72;1472359;96;21290;-92
2021/04/20 08:14:43;;;;;;;62.83;26.10;;;;;;;10.92;100.00;100088.81;1408648;99;21663;-90
2021/04/20 08:17:34;;;;;;;59.70;24.87;;;;;;;10.78;100.00;100087.77;1415125;99;21337;-91
2021/04/20 08:20:06;;;;;;;69.90;27.50;;;;;;;10.70;100.00;100083.73;1412830;100;21391;-91
2021/04/20 08:22:33;;;;;;;61.25;27.07;;;;;;;10.65;100.00;100081.08;1366246;103;21339;-92
2021/04/20 08:25:13;;;;;;;75.10;27.22;;;;;;;10.85;100.00;100072.94;1366357;104;21172;-92
2021/04/20 08:28:16;;;;;;;63.87;25.60;;;;;;;10.59;100.00;100069.50;1364473;103;21152;-93
2021/04/20 08:31:34;;;;;;;61.63;25.82;;;;;;;10.71;100.00;100068.38;1378733;102;22631;-93
2021/04/20 08:34:32;;;;;;;58.83;24.90;;;;;;;10.71;100.00;100061.12;1393660;98;21267;-93
2021/04/20 08:37:06;;;;;;;60.03;25.15;;;;;;;11.05;100.00;100063.15;1461424;97;22043;-95
2021/04/20 08:39:53;;;;;;;58.10;24.12;;;;;;;11.04;100.00;100046.72;1459309;96;21303;-94
2021/04/20 08:42:49;;;;;;;50.23;22.85;;;;;;;11.10;100.00;100053.16;1448124;98;21284;-93
2021/04/20 08:45:23;;;;;;;62.08;24.40;;;;;;;11.10;100.00;100046.95;1450537;98;21282;-91
2021/04/20 08:48:14;;;;;;;56.63;23.60;;;;;;;10.95;100.00;100041.09;1469683;94;21257;-91
2021/04/20 08:50:52;;;;;;;52.62;24.52;;;;;;;11.18;100.00;100036.95;1504675;92;22059;-92
2021/04/20 08:53:59;;;;;;;53.68;23.27;;;;;;;11.25;100.00;100029.34;1508232;93;21653;-91
2021/04/20 08:56:31;;;;;;;56.10;23.42;;;;;;;11.30;100.00;100028.52;1486958;96;21261;-91
2021/04/20 08:59:26;;;;;;;52.85;23.83;;;;;;;11.37;100.00;100013.63;1427115;97;21348;-91
2021/04/20 09:02:24;;;;;;;52.10;22.75;;;;;;;11.26;100.00;100010.72;1433439;100;21295;-90
2021/04/20 09:05:16;;;;;;;54.58;23.80;;;;;;;10.93;100.00;99997.96;1467615;97;22072;-95
2021/04/20 09:07:53;;;;;;;63.45;26.10;;;;;;;11.39;100.00;99990.98;1476345;95;21754;-95
2021/04/20 09:10:24;;;;;;;53.28;24.35;;;;;;;11.28;100.00;99973.49;1493209;93;21237;-92
2021/04/20 09:12:55;;;;;;;57.25;24.63;;;;;;;11.33;100.00;99982.91;1495462;95;21325;-94
2021/04/20 09:15:24;;;;;;;59.80;26.75;;;;;;;11.36;100.00;99981.00;1470582;95;21287;-93
2021/04/20 09:17:52;;;;;;;69.77;30.48;;;;;;;11.20;100.00;99975.42;1447679;97;22445;-93
2021/04/20 09:20:32;;;;;;;65.25;27.85;;;;;;;11.31;100.00;99975.63;1465954;96;21764;-93
2021/04/20 09:23:25;;;;;;;59.80;26.02;;;;;;;11.36;100.00;99981.00;1480304;96;21575;-93
2021/04/20 09:25:59;;;;;;;63.85;26.73;;;;;;;11.50;100.00;99967.69;1488928;95;21270;-94
2021/04/20 09:28:30;;;;;;;66.60;28.00;;;;;;;11.50;100.00;99970.91;1497778;94;21266;-94
2021/04/20 09:31:11;;;;;;;62.75;28.07;;;;;;;11.48;100.00;99970.41;1498017;94;21254;-93
2021/04/20 09:33:51;;;;;;;73.83;30.72;;;;;;;11.35;100.00;99969.95;1490429;93;21290;-94
2021/04/20 09:36:19;;;;;;;71.15;30.10;;;;;;;11.56;100.00;99964.41;1463324;98;21664;-93
2021/04/20 09:38:49;;;;;;;62.40;29.42;;;;;;;11.56;100.00;99950.92;1473970;96;21804;-93
2021/04/20 09:41:20;;;;;;;71.25;28.50;;;;;;;11.79;100.00;99956.94;1486865;95;21774;-93
2021/04/20 09:44:16;;;;;;;62.38;27.55;;;;;;;11.41;100.00;99953.16;1483932;96;21422;-92
2021/04/20 09:47:08;;;;;;;61.98;25.50;;;;;;;11.50;100.00;99948.80;1502260;95;21407;-91
2021/04/20 09:50:00;;;;;;;64.07;24.37;;;;;;;11.33;100.00;99948.39;1508437;93;21327;-92
2021/04/20 09:52:54;;;;;;;61.35;25.40;;;;;;;11.30;100.00;99938.96;1484527;95;21662;-93
2021/04/20 09:55:29;;;;;;;64.22;27.13;;;;;;;11.36;100.00;99935.14;1486336;94;27590;-90
2021/04/20 09:57:57;;;;;;;60.00;26.95;;;;;;;11.40;100.00;99930.53;1468371;97;21281;-90
2021/04/20 10:00:24;;;;;;;59.90;26.68;;;;;;;11.37;100.00;99919.20;1469209;96;21547;-90
2021/04/20 10:03:26;;;;;;;67.42;26.23;;;;;;;11.63;100.00;99924.41;1483337;95;21250;-90
2021/04/20 10:06:27;;;;;;;62.95;26.85;;;;;;;11.51;100.00;99918.58;1466047;97;21311;-90
2021/04/20 10:09:05;;;;;;;65.42;25.62;;;;;;;11.69;100.00;99917.06;1469430;95;21300;-90
2021/04/20 10:12:22;;;;;;;60.92;24.95;;;;;;;11.59;100.00;99917.42;1488910;96;21270;-91
2021/04/20 10:15:21;;;;;;;54.67;23.57;;;;;;;11.54;100.00;99912.06;1489216;94;21643;-91
2021/04/20 10:18:04;;;;;;;59.33;26.10;;;;;;;11.62;100.00;99909.31;1529961;92;21260;-89
2021/04/20 10:24:13;;;;;;;55.67;24.15;;;;;;;11.93;100.00;99899.59;1546708;91;21155;-89
2021/04/20 10:45:42;;;;;;;42.88;18.90;;;;;;;11.47;100.00;99883.78;1554688;92;27046;-91
2021/04/20 10:48:15;;;;;;;44.00;19.05;;;;;;;11.44;100.00;99881.13;1554714;92;21213;-90
2021/04/20 10:50:45;;;;;;;44.27;20.15;;;;;;;11.53;100.00;99873.20;1554085;91;21225;-90
2021/04/20 10:53:34;;;;;;;46.30;21.30;;;;;;;11.52;100.00;99870.25;1554188;92;21630;-89
2021/04/20 10:56:14;;;;;;;50.67;22.30;;;;;;;11.63;100.00;99865.58;1592788;89;21280;-90
2021/04/20 10:58:47;;;;;;;50.33;23.38;;;;;;;11.72;100.00;99864.66;1595141;89;21630;-91
2021/04/20 11:01:20;;;;;;;53.45;23.42;;;;;;;11.80;100.00;99862.70;1595253;89;33416;-90
2021/04/20 11:03:49;;;;;;;54.58;23.75;;;;;;;11.66;100.00;99859.61;1591360;90;21624;-90
2021/04/20 11:06:34;;;;;;;60.60;25.12;;;;;;;11.67;100.00;99851.21;1591619;89;21128;-90
2021/04/20 11:09:01;;;;;;;64.03;27.07;;;;;;;11.55;100.00;99848.89;1598987;87;21176;-91
2021/04/20 11:11:27;;;;;;;66.05;28.07;;;;;;;11.57;100.00;99844.58;1637512;87;21370;-90
2021/04/20 11:13:53;;;;;;;60.48;27.75;;;;;;;11.70;100.00;99840.39;1633989;87;21600;-92
2021/04/20 11:16:28;;;;;;;58.20;26.12;;;;;;;11.69;100.00;99834.75;1649085;85;21001;-92
2021/04/20 11:19:05;;;;;;;62.17;25.37;;;;;;;11.59;100.00;99832.97;1625603;88;21197;-94
2021/04/20 11:21:42;;;;;;;60.08;24.57;;;;;;;11.50;100.00;99827.90;1551285;92;21281;-94
2021/04/20 11:24:18;;;;;;;51.23;22.62;;;;;;;11.46;100.00;99829.02;1551898;92;21194;-92
2021/04/20 11:27:01;;;;;;;56.02;23.85;;;;;;;11.60;100.00;99825.12;1524777;91;21279;-96
2021/04/20 11:29:39;;;;;;;60.73;26.02;;;;;;;11.45;100.00;99822.58;1551686;91;21600;-96
2021/04/20 11:32:09;;;;;;;57.83;25.45;;;;;;;11.57;100.00;99816.25;1521416;94;21602;-96
2021/04/20 11:34:37;;;;;;;57.00;25.35;;;;;;;11.91;100.00;99811.31;1551875;92;21606;-96
2021/04/20 11:37:06;;;;;;;47.05;21.97;;;;;;;11.94;100.00;99810.73;1551767;92;21098;-96
2021/04/20 11:39:39;;;;;;;49.85;22.42;;;;;;;12.00;100.00;99808.23;1523271;94;21195;-96
2021/04/20 11:44:55;;;;;;;51.77;24.63;;;;;;;11.85;100.00;99794.36;1454033;98;21249;-96
2021/04/20 11:47:22;;;;;;;55.78;23.27;;;;;;;12.01;100.00;99797.70;1437001;99;21262;-94
2021/04/20 11:50:03;;;;;;;48.48;21.37;;;;;;;12.01;100.00;99790.41;1436322;98;21319;-94
2021/04/20 11:52:33;;;;;;;47.13;20.68;;;;;;;12.02;100.00;99785.80;1437059;99;21253;-94
2021/04/20 11:55:06;;;;;;;44.55;20.55;;;;;;;12.03;100.00;99784.73;1453450;98;21706;-93
2021/04/20 11:57:33;;;;;;;45.80;19.90;;;;;;;11.91;100.00;99778.91;1501649;94;21209;-93
2021/04/20 12:00:06;;;;;;;38.10;18.30;;;;;;;11.93;100.00;99778.09;1478264;97;21222;-93
2021/04/20 12:02:33;;;;;;;40.08;18.32;;;;;;;12.00;100.00;99767.72;1482988;96;21242;-95